Time;durP1;ratioP1;P1;durP2;ratioP2;P2;SDS_P1;SDS_P2;PMS_P1;PMS_P2;Temp;Humidity;BMP_temperature;BMP_pressure;BME280_temperature;BME280_humidity;BME280_pressure;Samples;Min_cycle;Max_cycle;Signal;HPM_P1;HPM_P2
2022/08/17 00:00:43;;;;;;;62.88;54.92;;;;;;;20.53;82.22;100878.41;5021771;28;20579;-68
2022/08/17 00:03:11;;;;;;;61.85;54.28;;;;;;;20.47;82.59;100877.66;5010316;28;20022;-68
2022/08/17 00:05:59;;;;;;;64.65;55.03;;;;;;;20.53;81.79;100872.84;5001912;28;20054;-68
2022/08/17 00:08:26;;;;;;;;;;;;;;;20.65;78.66;100868.53;5002571;28;20034;-68
2022/08/17 00:10:53;;;;;;;67.40;54.58;;;;;;;20.44;82.08;100867.06;5003761;28;19913;-69
2022/08/17 00:13:28;;;;;;;60.63;52.33;;;;;;;20.36;82.44;100857.38;5006058;28;20034;-68
2022/08/17 00:16:01;;;;;;;63.00;54.10;;;;;;;20.29;83.41;100858.88;5005296;28;20049;-69
2022/08/17 00:18:28;;;;;;;64.45;54.53;;;;;;;20.25;83.28;100857.78;5006206;28;20168;-68
2022/08/17 00:20:55;;;;;;;67.32;57.90;;;;;;;20.21;83.88;100851.97;5004429;28;20066;-68
2022/08/17 00:23:21;;;;;;;79.38;60.22;;;;;;;20.23;84.00;100857.28;5005665;28;20135;-69
2022/08/17 00:25:46;;;;;;;70.53;59.22;;;;;;;20.24;84.14;100859.75;5005259;28;20073;-68
2022/08/17 00:28:16;;;;;;;76.07;59.03;;;;;;;20.24;84.57;100854.19;5005581;28;20694;-68
2022/08/17 00:30:44;;;;;;;72.30;60.25;;;;;;;20.18;84.53;100850.63;5005523;28;20480;-69
2022/08/17 00:33:12;;;;;;;77.38;60.90;;;;;;;20.19;84.97;100851.44;5005386;28;20382;-68
2022/08/17 00:35:38;;;;;;;;;;;;;;;20.34;81.26;100837.34;5005296;28;20032;-68
2022/08/17 00:38:05;;;;;;;79.53;60.78;;;;;;;20.10;84.18;100840.09;5004997;28;20742;-68
2022/08/17 00:40:30;;;;;;;77.55;59.92;;;;;;;20.01;84.50;100816.75;5005189;28;20026;-68
2022/08/17 00:42:55;;;;;;;80.18;62.63;;;;;;;19.96;85.11;100825.19;5018667;28;20009;-68
2022/08/17 00:45:22;;;;;;;80.22;62.83;;;;;;;19.97;85.46;100815.69;5024567;28;20104;-69
2022/08/17 00:47:48;;;;;;;79.82;63.58;;;;;;;19.97;85.69;100810.09;5025772;28;20376;-68
2022/08/17 00:50:16;;;;;;;83.93;62.90;;;;;;;20.02;85.23;100824.03;5024372;28;20017;-69
2022/08/17 00:52:44;;;;;;;;;;;;;;;20.19;81.90;100823.56;5007254;28;20033;-69
2022/08/17 00:55:09;;;;;;;85.70;65.32;;;;;;;20.08;84.86;100817.25;5018127;28;19917;-68
2022/08/17 00:57:38;;;;;;;86.43;66.47;;;;;;;20.09;85.22;100820.88;5005171;28;20030;-68
2022/08/17 01:00:27;;;;;;;89.10;68.60;;;;;;;20.08;85.55;100811.69;5004641;28;20429;-68
2022/08/17 01:03:05;;;;;;;95.30;69.53;;;;;;;20.11;85.21;100816.66;5004492;28;20104;-68
2022/08/17 01:05:32;;;;;;;95.55;68.13;;;;;;;20.11;85.84;100819.44;5004042;28;20046;-68
2022/08/17 01:08:00;;;;;;;92.10;69.50;;;;;;;20.16;85.41;100824.13;5004663;28;20191;-68
2022/08/17 01:10:40;;;;;;;97.55;71.03;;;;;;;20.09;85.68;100827.28;5024880;22;20049;-68
2022/08/17 01:13:06;;;;;;;100.22;70.60;;;;;;;20.15;85.25;100820.53;5004096;28;20038;-68
2022/08/17 01:15:35;;;;;;;94.72;71.28;;;;;;;20.20;85.59;100823.25;5003870;28;20099;-68
2022/08/17 01:18:04;;;;;;;97.18;71.57;;;;;;;20.24;85.00;100817.91;5003631;28;20046;-68
2022/08/17 01:20:29;;;;;;;;;;;;;;;20.40;82.43;100813.00;5004568;28;20029;-68
2022/08/17 01:22:54;;;;;;;104.07;73.73;;;;;;;20.29;83.94;100808.66;5003538;28;19921;-68
2022/08/17 01:25:21;;;;;;;100.97;70.88;;;;;;;20.31;83.95;100806.41;5002907;28;20376;-68
2022/08/17 01:27:47;;;;;;;91.97;66.95;;;;;;;20.29;83.64;100817.03;5003992;28;20396;-68
2022/08/17 01:30:13;;;;;;;95.43;68.10;;;;;;;20.28;83.49;100805.06;5003900;28;20033;-68
2022/08/17 01:32:38;;;;;;;98.20;68.32;;;;;;;20.27;83.66;100811.72;4998012;28;20037;-68
2022/08/17 01:35:05;;;;;;;95.75;70.45;;;;;;;20.26;83.89;100806.47;5023285;28;20022;-68
2022/08/17 01:37:35;;;;;;;94.10;68.93;;;;;;;20.29;83.98;100800.31;5023739;28;20021;-68
2022/08/17 01:40:20;;;;;;;106.18;71.82;;;;;;;20.34;83.05;100800.25;5022261;28;20063;-68
2022/08/17 01:43:02;;;;;;;100.57;70.82;;;;;;;20.37;82.99;100788.47;5024450;28;20802;-68
2022/08/17 01:45:32;;;;;;;94.32;67.82;;;;;;;20.36;82.92;100795.19;5012916;28;20099;-69
2022/08/17 01:47:58;;;;;;;93.22;67.93;;;;;;;20.38;82.63;100790.16;5003494;28;20068;-69
2022/08/17 01:50:28;;;;;;;97.50;67.88;;;;;;;20.40;82.60;100785.94;5003130;28;20037;-68
2022/08/17 01:53:12;;;;;;;96.30;65.68;;;;;;;20.43;82.44;100785.34;5003226;28;20129;-68
2022/08/17 01:55:44;;;;;;;89.22;66.80;;;;;;;20.33;82.96;100779.06;5002946;28;20030;-68
2022/08/17 01:58:09;;;;;;;96.45;69.63;;;;;;;20.28;83.32;100793.06;5003357;28;20033;-68
2022/08/17 02:00:38;;;;;;;98.32;69.20;;;;;;;20.27;83.17;100791.38;5003313;28;20404;-69
2022/08/17 02:03:04;;;;;;;101.18;71.63;;;;;;;20.28;83.05;100798.66;5002689;28;20041;-68
2022/08/17 02:05:29;;;;;;;105.35;73.20;;;;;;;20.23;83.46;100801.50;5002843;28;20056;-68
2022/08/17 02:07:54;;;;;;;94.72;69.38;;;;;;;20.19;83.64;100793.72;5003481;28;20072;-68
2022/08/17 02:10:20;;;;;;;93.40;68.82;;;;;;;20.14;84.15;100790.97;5002629;28;20057;-68
2022/08/17 02:12:45;;;;;;;98.22;71.22;;;;;;;20.10;84.31;100795.47;5002938;28;20041;-69
2022/08/17 02:15:13;;;;;;;102.05;71.35;;;;;;;20.06;84.20;100788.81;5002989;28;20044;-68
2022/08/17 02:17:39;;;;;;;101.00;72.15;;;;;;;20.09;83.94;100784.63;5003395;28;20026;-68
2022/08/17 02:20:07;;;;;;;97.80;69.05;;;;;;;19.97;84.40;100790.59;5000918;28;20017;-68
2022/08/17 02:22:32;;;;;;;105.72;73.22;;;;;;;19.90;85.00;100792.91;5017443;28;20124;-68
2022/08/17 02:24:59;;;;;;;104.65;73.03;;;;;;;19.78;85.75;100789.69;5022111;28;20496;-68
2022/08/17 02:27:25;;;;;;;108.73;78.07;;;;;;;19.77;85.68;100785.22;5022495;28;20026;-68
2022/08/17 02:29:50;;;;;;;107.45;73.18;;;;;;;19.65;86.21;100786.47;5022301;28;20040;-68
2022/08/17 02:32:18;;;;;;;105.22;75.07;;;;;;;19.60;86.82;100783.72;5023342;28;20884;-68
2022/08/17 02:34:44;;;;;;;115.95;78.22;;;;;;;19.59;87.22;100783.97;5021440;28;20036;-68
2022/08/17 02:37:10;;;;;;;113.82;79.18;;;;;;;19.53;87.64;100787.94;5006155;28;20679;-68
2022/08/17 02:39:35;;;;;;;115.47;78.83;;;;;;;19.48;88.34;100785.22;5002216;28;20029;-68
2022/08/17 02:42:02;;;;;;;108.67;77.63;;;;;;;19.38;88.16;100788.91;5002693;28;20330;-68
2022/08/17 02:44:27;;;;;;;111.85;75.88;;;;;;;19.37;88.40;100785.28;5002578;28;20281;-69
2022/08/17 02:46:52;;;;;;;112.00;75.97;;;;;;;19.31;88.39;100791.16;5002486;28;20025;-68
2022/08/17 02:49:18;;;;;;;111.30;76.00;;;;;;;19.27;88.95;100784.53;5003256;28;20136;-68
2022/08/17 02:51:43;;;;;;;113.25;78.18;;;;;;;19.23;88.97;100777.88;5001793;28;20468;-69
2022/08/17 02:54:08;;;;;;;114.57;78.90;;;;;;;19.18;89.30;100779.59;5002729;28;20104;-68
2022/08/17 02:56:33;;;;;;;115.93;79.10;;;;;;;19.18;89.16;100765.66;5001347;28;20823;-68
2022/08/17 02:58:59;;;;;;;119.00;79.13;;;;;;;19.14;89.83;100767.34;5002017;28;20061;-68
2022/08/17 03:01:24;;;;;;;113.32;79.03;;;;;;;19.12;89.44;100766.84;5002300;28;20041;-68
2022/08/17 03:03:49;;;;;;;121.68;79.57;;;;;;;19.10;89.74;100766.28;5003024;28;20680;-68
2022/08/17 03:06:15;;;;;;;112.57;80.68;;;;;;;19.05;89.70;100762.69;5001831;28;20032;-68
2022/08/17 03:08:40;;;;;;;119.43;80.45;;;;;;;19.03;90.25;100768.56;5001961;28;20053;-68
2022/08/17 03:11:06;;;;;;;129.40;82.43;;;;;;;18.98;90.85;100763.03;5007068;28;20123;-68
2022/08/17 03:13:31;;;;;;;123.47;84.07;;;;;;;18.97;91.25;100763.31;5021405;28;20037;-69
2022/08/17 03:15:57;;;;;;;121.72;81.65;;;;;;;18.92;90.86;100762.22;5021108;28;20110;-68
2022/08/17 03:18:24;;;;;;;120.95;82.25;;;;;;;18.91;91.47;100760.56;5021997;28;20034;-68
2022/08/17 03:20:50;;;;;;;125.72;83.18;;;;;;;18.91;91.62;100754.19;5022144;28;20032;-68
2022/08/17 03:23:15;;;;;;;124.07;81.60;;;;;;;18.86;91.27;100759.78;5021975;28;20033;-68
2022/08/17 03:25:42;;;;;;;131.23;82.22;;;;;;;18.88;91.25;100760.31;5021087;28;20049;-68
2022/08/17 03:28:09;;;;;;;125.10;81.40;;;;;;;18.88;91.22;100763.09;5022132;28;20108;-68
2022/08/17 03:30:35;;;;;;;125.70;81.03;;;;;;;18.95;91.05;100763.59;5020379;28;20029;-68
2022/08/17 03:33:03;;;;;;;130.55;84.72;;;;;;;18.91;90.73;100763.38;5021245;28;20028;-68
2022/08/17 03:35:31;;;;;;;125.68;80.88;;;;;;;18.92;90.69;100765.03;5021308;28;20132;-69
2022/08/17 03:37:58;;;;;;;126.40;83.32;;;;;;;18.91;91.23;100768.09;5021779;28;20018;-68
2022/08/17 03:40:23;;;;;;;130.27;83.22;;;;;;;18.90;91.44;100766.41;5021266;28;20128;-69
2022/08/17 03:42:52;;;;;;;137.02;86.13;;;;;;;18.87;91.61;100764.22;5022072;28;20144;-68
2022/08/17 03:56:42;;;;;;;148.00;88.63;;;;;;;19.05;91.16;100769.09;5006275;28;20088;-68
2022/08/17 03:59:20;;;;;;;135.50;86.28;;;;;;;19.08;90.84;100771.31;5005585;28;20029;-68
2022/08/17 04:01:49;;;;;;;141.20;86.63;;;;;;;19.05;90.88;100771.88;5018826;28;20025;-68
2022/08/17 04:04:15;;;;;;;152.57;93.15;;;;;;;19.06;91.10;100775.50;5025155;28;20686;-68
2022/08/17 04:06:41;;;;;;;151.07;91.97;;;;;;;19.08;91.19;100776.88;5023695;28;20034;-68
2022/08/17 04:09:06;;;;;;;145.88;91.25;;;;;;;19.13;91.02;100774.06;5024287;28;20487;-68
2022/08/17 04:11:33;;;;;;;156.38;93.88;;;;;;;19.15;91.11;100785.72;5025215;28;20021;-68
2022/08/17 04:14:00;;;;;;;159.68;95.53;;;;;;;19.15;91.29;100782.09;5023168;28;20504;-68
2022/08/17 04:16:25;;;;;;;154.02;92.20;;;;;;;19.16;91.06;100792.16;5025153;28;20029;-68
2022/08/17 04:18:51;;;;;;;153.95;92.70;;;;;;;19.19;91.65;100800.72;5025068;28;20025;-69
2022/08/17 04:21:18;;;;;;;156.95;96.05;;;;;;;19.25;91.72;100820.19;5024503;28;20079;-68
2022/08/17 04:23:44;;;;;;;153.52;93.20;;;;;;;19.28;91.61;100833.53;5024465;28;20029;-68
2022/08/17 04:26:10;;;;;;;155.73;96.20;;;;;;;19.30;91.86;100842.44;5023262;28;20040;-67
2022/08/17 04:28:35;;;;;;;157.30;95.38;;;;;;;19.36;91.66;100832.91;5024588;28;20029;-68
2022/08/17 04:31:00;;;;;;;155.90;94.43;;;;;;;19.43;91.07;100828.69;5024430;28;20026;-68
2022/08/17 04:33:28;;;;;;;152.02;91.80;;;;;;;19.42;91.24;100826.19;5025062;28;20464;-68
2022/08/17 04:35:59;;;;;;;147.87;91.43;;;;;;;19.47;91.11;100817.81;5024128;28;20021;-68
2022/08/17 04:38:32;;;;;;;139.73;87.57;;;;;;;19.50;91.56;100822.78;5025014;28;20280;-69
2022/08/17 04:43:45;;;;;;;124.78;77.80;;;;;;;19.62;91.14;100837.22;5023630;28;20103;-68
2022/08/17 04:46:16;;;;;;;120.10;76.87;;;;;;;19.65;91.22;100841.34;5024083;28;20231;-68
2022/08/17 04:48:48;;;;;;;105.72;72.05;;;;;;;19.69;90.81;100837.69;5024031;28;20274;-68
2022/08/17 04:51:18;;;;;;;103.13;69.63;;;;;;;19.73;90.77;100843.53;5023809;28;20108;-69
2022/08/17 04:53:46;;;;;;;92.15;65.32;;;;;;;19.79;90.29;100841.53;5024565;28;20392;-68
2022/08/17 04:56:14;;;;;;;89.60;65.32;;;;;;;19.79;90.40;100836.78;5021725;28;20041;-68
2022/08/17 04:58:40;;;;;;;;;;;;;;;19.91;88.59;100867.03;5024886;28;20036;-70
2022/08/17 05:01:06;;;;;;;72.32;55.85;;;;;;;19.89;89.45;100884.06;5007063;28;20008;-69
2022/08/17 05:03:31;;;;;;;68.38;54.80;;;;;;;19.90;89.27;100866.22;5004241;28;20022;-69
2022/08/17 05:05:56;;;;;;;62.88;51.75;;;;;;;19.94;89.24;100855.31;5003739;28;20107;-69
2022/08/17 05:08:22;;;;;;;60.95;52.30;;;;;;;19.91;89.08;100867.88;5004661;28;20036;-68
2022/08/17 05:10:47;;;;;;;58.45;49.67;;;;;;;19.94;89.37;100856.16;5003481;28;20042;-68
2022/08/17 05:13:17;;;;;;;56.72;50.13;;;;;;;19.92;89.42;100857.53;5003920;28;20030;-69
2022/08/17 05:15:44;;;;;;;52.25;46.67;;;;;;;19.88;89.54;100856.50;5004287;28;20040;-68
2022/08/17 05:18:10;;;;;;;52.50;46.97;;;;;;;19.89;89.19;100841.44;5018713;28;20116;-69
2022/08/17 05:20:37;;;;;;;51.40;45.92;;;;;;;19.72;90.32;100861.38;5023811;28;20109;-68
2022/08/17 05:23:06;;;;;;;47.75;42.80;;;;;;;19.73;90.37;100856.63;5023717;28;20076;-68
2022/08/17 05:25:33;;;;;;;47.03;42.08;;;;;;;19.69;90.86;100857.19;5022667;28;20426;-68
2022/08/17 05:27:59;;;;;;;46.33;41.75;;;;;;;19.70;90.57;100858.03;5023388;28;20060;-68
2022/08/17 05:30:25;;;;;;;45.55;41.15;;;;;;;19.75;90.11;100851.59;5023887;28;20052;-68
2022/08/17 05:32:57;;;;;;;45.42;40.83;;;;;;;19.78;90.52;100846.28;5023189;28;20529;-69
2022/08/17 05:35:24;;;;;;;43.63;39.30;;;;;;;19.82;90.30;100843.69;5022057;28;20025;-68
2022/08/17 05:37:50;;;;;;;42.40;38.33;;;;;;;19.84;90.37;100844.25;5023840;28;20029;-68
2022/08/17 05:40:17;;;;;;;41.13;36.97;;;;;;;19.85;90.29;100845.91;5022851;28;20411;-69
2022/08/17 05:42:43;;;;;;;42.00;38.00;;;;;;;19.88;90.01;100832.25;5023956;28;20091;-68
2022/08/17 05:45:09;;;;;;;39.58;35.70;;;;;;;19.87;90.47;100835.28;5023370;28;20033;-68
2022/08/17 05:47:37;;;;;;;39.35;35.63;;;;;;;19.91;90.39;100828.00;5022905;28;20033;-68
2022/08/17 05:50:02;;;;;;;39.15;35.47;;;;;;;19.88;90.02;100826.66;5021670;28;20029;-68
2022/08/17 05:52:44;;;;;;;39.67;35.75;;;;;;;19.93;89.95;100826.59;5005721;28;20042;-68
2022/08/17 05:55:34;;;;;;;37.95;34.20;;;;;;;19.99;89.73;100834.91;5001930;28;20092;-69
2022/08/17 05:58:13;;;;;;;39.03;35.25;;;;;;;20.01;89.78;100836.28;5003381;28;20488;-68
2022/08/17 06:00:51;;;;;;;37.40;34.03;;;;;;;20.05;89.50;100830.94;5003668;28;20479;-68
2022/08/17 06:03:36;;;;;;;36.72;33.20;;;;;;;20.07;89.68;100826.75;5003794;28;20476;-68
2022/08/17 06:06:46;;;;;;;35.90;32.40;;;;;;;20.23;88.27;100824.63;5003883;28;20038;-68
2022/08/17 06:09:53;;;;;;;35.63;32.10;;;;;;;20.37;88.34;100825.56;5001225;28;20044;-68
2022/08/17 06:12:47;;;;;;;34.20;31.02;;;;;;;20.49;87.58;100833.56;5023492;28;20109;-68
2022/08/17 06:15:24;;;;;;;32.03;29.02;;;;;;;20.65;87.41;100832.25;5022051;28;20021;-68
2022/08/17 06:17:52;;;;;;;;;;;;;;;20.86;86.03;100821.63;5023814;28;20387;-66
2022/08/17 06:20:17;;;;;;;31.48;28.48;;;;;;;20.93;84.78;100829.63;5022566;28;20244;-68
2022/08/17 06:22:48;;;;;;;30.95;27.85;;;;;;;21.04;84.39;100836.75;5022962;28;20033;-68
2022/08/17 06:25:17;;;;;;;30.67;27.52;;;;;;;21.11;83.12;100841.94;5020836;28;20584;-68
2022/08/17 06:27:52;;;;;;;30.20;27.38;;;;;;;21.21;82.81;100861.34;5022611;28;20495;-68
2022/08/17 06:30:24;;;;;;;28.63;25.80;;;;;;;21.26;82.31;100872.44;5022819;28;20032;-68
2022/08/17 06:32:51;;;;;;;29.42;26.52;;;;;;;21.27;82.66;100878.88;5022995;28;20017;-68
2022/08/17 06:35:27;;;;;;;30.53;27.47;;;;;;;21.25;82.31;100870.81;5021976;28;20029;-68
2022/08/17 06:38:31;;;;;;;30.23;27.35;;;;;;;21.25;82.43;100885.59;5004746;28;20519;-68
2022/08/17 06:41:26;;;;;;;30.50;27.42;;;;;;;21.23;82.26;100887.84;5008027;28;20511;-68
2022/08/17 06:44:19;;;;;;;29.80;26.83;;;;;;;21.18;82.26;100882.31;5002746;28;20022;-68
2022/08/17 06:46:48;;;;;;;32.40;29.23;;;;;;;21.16;82.01;100881.81;5001997;28;20507;-68
2022/08/17 06:49:25;;;;;;;31.38;28.08;;;;;;;21.17;81.68;100879.84;5002364;28;20049;-68
2022/08/17 06:52:00;;;;;;;32.07;28.93;;;;;;;21.13;82.71;100887.97;5001908;28;20033;-68
2022/08/17 06:54:40;;;;;;;32.03;28.75;;;;;;;21.18;82.45;100885.13;5001940;28;20040;-68
2022/08/17 06:57:24;;;;;;;29.20;26.48;;;;;;;21.19;82.03;100881.22;5002378;28;20038;-68
2022/08/17 06:59:58;;;;;;;29.77;26.88;;;;;;;21.16;81.93;100879.00;5002361;28;20388;-68
2022/08/17 07:02:44;;;;;;;30.67;27.77;;;;;;;21.19;82.75;100889.59;5002337;28;20030;-68
2022/08/17 07:05:11;;;;;;;31.65;28.55;;;;;;;21.16;83.52;100890.19;5001754;28;20072;-68
2022/08/17 07:10:25;;;;;;;29.73;26.63;;;;;;;21.30;81.52;100892.25;5001737;28;19923;-68
2022/08/17 07:12:54;;;;;;;29.38;26.58;;;;;;;21.33;81.67;100897.25;5002510;28;20101;-66
2022/08/17 07:15:25;;;;;;;30.35;27.40;;;;;;;21.34;81.75;100887.72;5001936;28;20037;-68
2022/08/17 07:17:51;;;;;;;30.55;27.45;;;;;;;21.38;81.48;100891.59;5002142;28;20045;-67
2022/08/17 07:20:19;;;;;;;29.40;26.42;;;;;;;21.42;81.26;100889.84;5009251;28;20044;-68
2022/08/17 07:23:03;;;;;;;30.40;27.60;;;;;;;21.42;80.99;100889.84;5021740;28;20524;-68
2022/08/17 07:25:29;;;;;;;30.27;27.23;;;;;;;21.44;80.98;100898.75;5021393;28;20033;-68
2022/08/17 07:28:01;;;;;;;28.70;25.90;;;;;;;21.40;80.38;100898.53;5021603;28;20017;-68
2022/08/17 07:30:34;;;;;;;30.50;27.55;;;;;;;21.42;80.91;100903.81;5017150;28;20109;-68
2022/08/17 07:33:18;;;;;;;29.38;26.35;;;;;;;21.46;80.39;100907.69;5001751;28;20357;-68
2022/08/17 07:35:47;;;;;;;28.08;25.38;;;;;;;21.50;81.02;100903.16;5001915;28;20033;-69
2022/08/17 07:38:15;;;;;;;29.83;26.83;;;;;;;21.46;80.66;100902.09;5001636;28;20026;-68
2022/08/17 07:40:44;;;;;;;29.77;26.80;;;;;;;21.50;80.55;100906.78;5001468;28;20099;-68
2022/08/17 07:43:22;;;;;;;29.50;26.80;;;;;;;21.53;80.05;100905.31;5001816;28;20105;-68
2022/08/17 07:48:36;;;;;;;29.20;26.40;;;;;;;21.60;79.86;100913.34;5004808;28;19924;-68
2022/08/17 07:51:14;;;;;;;29.75;26.60;;;;;;;21.70;79.90;100928.00;5001338;28;20049;-68
2022/08/17 07:53:40;;;;;;;30.08;27.02;;;;;;;21.72;78.97;100922.91;5001441;28;20030;-68
2022/08/17 07:56:05;;;;;;;29.77;26.98;;;;;;;21.77;78.86;100920.03;5001992;28;20073;-68
2022/08/17 07:58:31;;;;;;;28.33;25.63;;;;;;;21.85;79.33;100934.47;4983909;28;20054;-68
2022/08/17 08:01:09;;;;;;;27.83;24.92;;;;;;;21.91;78.73;100941.66;5001870;28;20030;-68
2022/08/17 08:03:41;;;;;;;27.38;24.52;;;;;;;21.93;78.83;100939.38;5000591;28;20069;-68
2022/08/17 08:06:21;;;;;;;28.63;25.63;;;;;;;21.90;77.79;100952.00;5001241;28;20034;-68
2022/08/17 08:08:53;;;;;;;28.38;25.58;;;;;;;21.98;78.46;100947.66;5001470;28;20104;-68
2022/08/17 08:11:32;;;;;;;26.67;24.05;;;;;;;22.14;78.63;100954.69;5016243;28;20431;-68
2022/08/17 08:14:21;;;;;;;28.55;25.85;;;;;;;22.24;77.76;100945.28;5021430;28;20039;-68
2022/08/17 08:17:03;;;;;;;27.55;24.80;;;;;;;22.26;77.44;100946.66;5021859;28;20025;-68
2022/08/17 08:19:30;;;;;;;28.65;25.95;;;;;;;22.31;77.42;100947.72;5020889;28;20531;-68
2022/08/17 08:22:10;;;;;;;30.25;27.40;;;;;;;22.39;76.91;100944.19;5009132;28;20424;-68
2022/08/17 08:24:56;;;;;;;28.90;25.95;;;;;;;22.50;76.57;100942.88;5000747;28;20040;-68
2022/08/17 08:27:42;;;;;;;31.40;28.30;;;;;;;22.67;76.04;100942.28;5001829;28;20033;-68
2022/08/17 08:30:13;;;;;;;31.60;28.50;;;;;;;22.75;74.74;100939.56;5001154;28;20030;-68
2022/08/17 08:32:55;;;;;;;31.80;28.38;;;;;;;22.86;74.54;100930.97;5003668;28;20688;-68
2022/08/17 08:35:31;;;;;;;32.75;29.40;;;;;;;22.89;73.89;100934.00;5004139;28;20072;-67
2022/08/17 08:38:06;;;;;;;30.92;27.92;;;;;;;23.04;73.04;100924.47;5004799;28;20626;-68
2022/08/17 08:40:55;;;;;;;32.90;29.30;;;;;;;23.08;72.81;100911.50;5023376;28;20044;-68
2022/08/17 08:43:34;;;;;;;32.45;29.17;;;;;;;23.16;72.75;100898.69;5024858;28;20033;-67
2022/08/17 08:46:23;;;;;;;33.42;30.13;;;;;;;23.12;72.11;100892.09;5023874;28;20029;-67
2022/08/17 08:49:04;;;;;;;34.17;30.80;;;;;;;23.11;71.33;100905.25;5024616;28;20037;-68
2022/08/17 08:51:32;;;;;;;33.83;30.45;;;;;;;23.07;72.15;100937.03;5024483;28;20022;-68
2022/08/17 08:53:57;;;;;;;;;;;;;;;23.27;72.15;100961.81;5024191;28;20037;-67
2022/08/17 08:56:48;;;;;;;32.53;29.13;;;;;;;23.21;71.75;100963.03;5022898;28;20279;-67
2022/08/17 08:59:28;;;;;;;31.88;28.88;;;;;;;23.34;70.95;100955.78;5024229;28;20033;-68
2022/08/17 09:02:22;;;;;;;34.97;31.35;;;;;;;23.58;69.76;100942.34;5004248;28;20634;-68
2022/08/17 09:05:13;;;;;;;33.78;30.42;;;;;;;23.58;70.19;100927.47;5004497;28;20043;-68
2022/08/17 09:08:15;;;;;;;33.35;29.83;;;;;;;23.69;70.10;100918.53;5004671;28;20029;-68
2022/08/17 09:10:58;;;;;;;32.83;29.00;;;;;;;23.67;69.57;100915.22;5004262;28;20143;-68
2022/08/17 09:14:15;;;;;;;34.10;30.70;;;;;;;23.87;69.57;100921.47;5004259;28;20029;-67
2022/08/17 09:16:49;;;;;;;32.90;29.35;;;;;;;23.92;68.79;100921.34;4951828;28;20468;-68
2022/08/17 09:19:22;;;;;;;33.58;30.05;;;;;;;23.95;67.69;100931.94;4962026;28;20058;-68
2022/08/17 09:21:54;;;;;;;33.50;30.13;;;;;;;23.94;67.52;100933.09;5002225;28;20209;-68
2022/08/17 09:24:26;;;;;;;33.78;30.30;;;;;;;23.79;67.43;100932.31;5023702;28;20033;-68
2022/08/17 09:27:07;;;;;;;32.03;28.92;;;;;;;23.70;68.51;100936.19;5023231;28;20025;-68
2022/08/17 09:29:37;;;;;;;33.65;29.25;;;;;;;23.55;68.92;100946.56;5023371;28;20747;-68
2022/08/17 09:32:23;;;;;;;33.13;29.73;;;;;;;23.52;69.28;100950.03;5021377;28;20025;-69
2022/08/17 09:34:53;;;;;;;35.00;31.70;;;;;;;23.33;68.53;100954.94;5023729;28;20664;-68
2022/08/17 09:37:21;;;;;;;35.35;31.90;;;;;;;23.25;69.45;100958.47;5023111;28;20044;-68
2022/08/17 09:40:10;;;;;;;34.28;30.98;;;;;;;23.16;69.79;100961.19;5023394;28;20033;-68
2022/08/17 09:42:43;;;;;;;35.13;31.45;;;;;;;23.13;70.31;100970.22;5022807;28;20028;-68
2022/08/17 09:45:37;;;;;;;34.55;31.17;;;;;;;22.99;70.46;100966.59;5023309;28;20172;-68
2022/08/17 09:48:13;;;;;;;36.05;32.45;;;;;;;22.91;71.11;100973.75;5022736;28;20017;-68
2022/08/17 09:50:54;;;;;;;35.50;31.80;;;;;;;22.82;71.27;100985.97;5018983;28;20108;-68
2022/08/17 09:53:20;;;;;;;35.95;32.55;;;;;;;22.72;71.35;100984.19;5022806;28;20100;-68
2022/08/17 09:56:27;;;;;;;36.90;33.40;;;;;;;22.75;71.65;100998.38;5023226;28;20033;-68
2022/08/17 09:59:15;;;;;;;37.30;33.60;;;;;;;22.58;72.59;101017.75;5014383;28;20041;-68
2022/08/17 10:01:47;;;;;;;37.50;33.97;;;;;;;22.43;74.82;101029.22;5022344;28;20026;-68
2022/08/17 10:04:29;;;;;;;39.90;35.80;;;;;;;22.37;76.13;101033.25;5022953;28;20029;-68
2022/08/17 10:06:57;;;;;;;37.28;33.72;;;;;;;22.25;75.59;101033.69;5022020;28;20655;-68
2022/08/17 10:09:38;;;;;;;39.28;35.33;;;;;;;22.20;77.19;101042.16;5004060;28;20049;-67
2022/08/17 10:12:18;;;;;;;37.97;34.38;;;;;;;22.03;78.35;101037.09;5002860;28;20030;-68
2022/08/17 10:14:53;;;;;;;39.95;35.97;;;;;;;21.99;80.78;101036.03;5003358;28;20089;-68
2022/08/17 10:17:38;;;;;;;40.97;36.97;;;;;;;21.92;81.60;101038.38;5003290;28;20388;-68
2022/08/17 10:20:09;;;;;;;40.20;36.05;;;;;;;21.75;81.92;101045.34;5002988;28;20614;-68
2022/08/17 10:28:38;;;;;;;44.40;39.80;;;;;;;21.45;89.82;101038.19;5003031;28;20038;-69
2022/08/17 10:31:07;;;;;;;41.55;37.58;;;;;;;21.27;87.60;101035.31;5002588;28;20028;-69
2022/08/17 10:33:51;;;;;;;43.53;39.38;;;;;;;21.23;88.77;101041.47;5002924;28;20056;-68
2022/08/17 10:36:25;;;;;;;45.17;40.47;;;;;;;21.18;91.70;101051.88;5002306;28;20081;-68
2022/08/17 10:39:09;;;;;;;45.97;41.28;;;;;;;21.09;91.35;101036.94;5002988;28;20112;-66
2022/08/17 10:41:44;;;;;;;46.40;41.67;;;;;;;21.03;93.92;101041.72;5017558;28;20103;-69
2022/08/17 10:44:25;;;;;;;49.78;44.75;;;;;;;20.99;95.03;101035.91;5002651;28;20037;-69
2022/08/17 10:47:05;;;;;;;50.35;45.28;;;;;;;21.00;96.63;101028.38;5002224;28;20580;-68
2022/08/17 10:49:33;;;;;;;48.85;43.78;;;;;;;20.92;96.09;101013.06;5002919;28;20060;-69
2022/08/17 10:52:03;;;;;;;51.97;46.72;;;;;;;20.81;98.00;100997.56;5002284;28;20021;-68
2022/08/17 10:54:46;;;;;;;53.97;48.28;;;;;;;20.82;97.53;100990.84;5000518;28;20030;-68
2022/08/17 10:57:44;;;;;;;51.00;46.03;;;;;;;20.83;97.23;100995.31;5001779;28;20447;-69
2022/08/17 11:00:17;;;;;;;53.53;48.22;;;;;;;20.83;97.87;100994.47;5002157;28;20374;-69
2022/08/17 11:02:48;;;;;;;53.45;48.13;;;;;;;20.85;98.48;100992.22;5002370;28;20026;-69
2022/08/17 11:05:49;;;;;;;54.97;49.38;;;;;;;20.96;98.75;100988.19;5002041;28;20476;-69
2022/08/17 11:08:30;;;;;;;52.20;46.90;;;;;;;21.01;98.16;100987.31;5002099;28;20900;-69
2022/08/17 11:11:15;;;;;;;51.75;46.40;;;;;;;21.03;98.34;100988.66;4984160;28;20141;-69
2022/08/17 11:13:51;;;;;;;51.17;46.05;;;;;;;21.02;97.98;100992.59;5002210;28;20305;-69
2022/08/17 11:16:56;;;;;;;52.47;47.10;;;;;;;21.02;96.99;100992.59;5002166;28;20038;-69
2022/08/17 11:19:27;;;;;;;52.67;47.38;;;;;;;20.95;97.24;100989.31;5002163;28;20115;-69
2022/08/17 11:22:36;;;;;;;51.83;46.63;;;;;;;20.98;96.09;100997.94;5001396;28;20030;-69
2022/08/17 11:25:17;;;;;;;53.70;48.20;;;;;;;20.97;96.99;100999.06;4977929;28;20129;-69
2022/08/17 11:27:46;;;;;;;56.15;50.45;;;;;;;20.96;98.62;101000.19;5002262;28;20504;-69
2022/08/17 11:30:34;;;;;;;55.33;49.42;;;;;;;20.90;98.99;100995.78;5011520;28;20025;-69
2022/08/17 11:33:40;;;;;;;53.33;48.00;;;;;;;20.91;97.20;100999.41;5020314;28;20140;-69
2022/08/17 11:36:33;;;;;;;55.83;49.55;;;;;;;20.87;97.65;101001.13;5003275;28;20041;-69
2022/08/17 11:39:29;;;;;;;53.90;48.50;;;;;;;20.85;97.79;101014.56;5020971;28;20033;-69
2022/08/17 11:42:19;;;;;;;54.42;48.92;;;;;;;20.80;98.26;101011.84;5020947;28;20265;-69
2022/08/17 11:44:52;;;;;;;52.22;46.83;;;;;;;20.79;96.15;101024.13;5021740;28;20049;-68
2022/08/17 11:53:40;;;;;;;53.47;47.90;;;;;;;20.71;97.79;101037.59;4940585;29;20610;-69
2022/08/17 11:56:09;;;;;;;52.83;47.63;;;;;;;20.66;98.93;101039.59;4940716;29;20606;-69
2022/08/17 11:58:36;;;;;;;53.97;48.38;;;;;;;20.67;99.21;101044.03;4979583;28;20092;-68
2022/08/17 12:01:05;;;;;;;52.35;47.13;;;;;;;20.64;97.56;101048.28;5001755;28;20366;-67
2022/08/17 12:03:30;;;;;;;53.80;48.05;;;;;;;20.64;98.42;101053.84;5002182;28;20022;-68
2022/08/17 12:06:16;;;;;;;53.97;48.43;;;;;;;20.73;99.79;101060.47;5001780;28;20492;-68
2022/08/17 12:08:47;;;;;;;52.30;46.92;;;;;;;20.67;97.43;101067.19;5003900;28;20033;-67